WICT2: Wichita River At Wichita Falls, TX

                                SHEF ID:       WICT2     Wichita Rv at Wichita Falls, TX
STATION TYPE:
Regulating: Stage = 18.50, Flow = 5482

PRECIP STAGE RIV-FLOW WTR-TEMP CONDUCT BAT-LOAD
in ft cfs F umho/cm volt
Ccp-Rev Ccp-Rev Ccp-Rev Ccp-Rev Ccp-Rev Ccp-Rev
(America/Chicago)
03/31 00:00 ---- 2.31 33 71.13 6354 12.07
03/31 01:00 ---- 2.31 33 70.84 6368 12.06
03/31 02:00 ---- 2.30 33 70.52 6357 12.04
03/31 03:00 ---- 2.30 33 70.12 6332 12.02
03/31 04:00 ---- 2.28 31 69.69 6311 12.00
03/31 05:00 ---- 2.27 30 69.31 6191 11.98
03/31 06:00 ---- 2.26 30 68.92 6183 11.97
03/31 07:00 ---- 2.24 28 68.52 6090 11.96
03/31 08:00 ---- 2.22 27 68.14 6139 11.97
03/31 09:00 ---- 2.20 25 67.89 6133 12.06
03/31 10:00 ---- 2.18 24 67.91 6134 12.37
03/31 11:00 ---- 2.17 23 68.31 6102 12.75
03/31 12:00 ---- 2.15 22 68.94 6123 12.80
03/31 13:00 ---- 2.15 22 70.02 6154 12.62
03/31 14:00 ---- 2.14 21 71.28 6203 12.54
03/31 15:00 ---- 2.17 23 72.79 6193 12.48
03/31 16:00 ---- 2.17 23 73.99 6235 12.41
03/31 17:00 ---- 2.21 26 74.86 6214 12.34
03/31 18:00 ---- 2.22 27 74.68 6193 12.25
03/31 19:00 ---- 2.24 28 74.28 6193 12.17
03/31 20:00 ---- 2.26 30 73.92 6195 12.11
03/31 21:00 ---- 2.27 30 73.74 6123 12.05
03/31 22:00 ---- 2.27 30 73.65 6172 12.08
03/31 23:00 ---- ---- ---- ---- ---- ----
Data processed at Wed 01Apr2026 04:58 GMT

NOTICE: If you are parsing this page

Please convert to using our Data API. Starting early 2026 we will be migrating to: https://water.usace.army.mil with modern pages rendered in JavaScript. When this migration completes you will no longer be able to scrape this page! CWMSDataAPI (CDA)

Timeseries IDs (TSIDs)

TSIDs used from left to right in the data table
WFAL.Precip-Inc.Total.1Hour.1Hour.Ccp-Rev
WFAL.Stage.Inst.1Hour.0.Ccp-Rev
WFAL.Flow.Inst.1Hour.0.Ccp-Rev
WFAL.Temp-Water.Inst.1Hour.0.Ccp-Rev
WFAL.Cond-Water.Inst.1Hour.0.Ccp-Rev
WFAL.Volt-Battery Load.Inst.1Hour.0.Ccp-Rev

                            

All information presented herein is the property of the government of the United States of America and may be revised or deleted at any time without prior notice. Dissemination of this information without the expressed written consent of the Public Affairs Office, Tulsa District U.S. Army Corps of Engineers is strictly prohibited. These data are gathered electronically and, as presented, have NOT undergone any form of quality control. These data are NOT guaranteed to be valid or correct.